This is the latest recevied weather packets stored in our database for station/object W0VI. If no packets are shown the sender has not sent any weather packets the latest 10 day(s).
| Time | Temp. | Humidity | Pressure | Rain* | Wind** | Luminosity | Snow |
|---|---|---|---|---|---|---|---|
| 1787774736 | 26.11° C | 59% | 1015.4 hPa | 0 mm | - | 582 W/m² | - |
| 1787774430 | 25.56° C | 59% | 1015.4 hPa | 0 mm | - | 542 W/m² | - |
| 1787774125 | 25.56° C | 59% | 1015.4 hPa | 0 mm | - | 146 W/m² | - |
| 1787773824 | 26.11° C | 57% | 1015.5 hPa | 0 mm | - | 304 W/m² | - |
| 1787773523 | 25.56° C | 59% | 1015.3 hPa | 0 mm | - | 282 W/m² | - |
| 1787773219 | 25.56° C | 60% | 1015.5 hPa | 0 mm | - | 179 W/m² | - |
| 1787772914 | 25° C | 61% | 1015.5 hPa | 0 mm | - | 617 W/m² | - |
| 1787772610 | 24.44° C | 61% | 1015.4 hPa | 0 mm | - | 505 W/m² | - |
| 1787772303 | 25° C | 62% | 1015.5 hPa | 0 mm | - | 222 W/m² | - |
| 1787772002 | 25° C | 61% | 1015.5 hPa | 0 mm | - | 188 W/m² | - |
| 1787771697 | 25.56° C | 58% | 1015.6 hPa | 0 mm | - | 277 W/m² | - |
| 1787771396 | 26.11° C | 57% | 1015.4 hPa | 0 mm | - | 351 W/m² | - |
| 1787771095 | 25° C | 59% | 1015.4 hPa | 0 mm | - | 359 W/m² | - |
| 1787770790 | 24.44° C | 61% | 1015.2 hPa | 0 mm | - | 520 W/m² | - |
| 1787770489 | 24.44° C | 61% | 1015.3 hPa | 0 mm | - | 270 W/m² | - |
| 1787770189 | 25.56° C | 60% | 1015.5 hPa | 0 mm | - | 199 W/m² | - |
| 1787769888 | 26.11° C | 57% | 1015.5 hPa | 0 mm | - | 335 W/m² | - |
| 1787769583 | 25.56° C | 57% | 1015.5 hPa | 0 mm | - | 747 W/m² | - |
| 1787769281 | 25° C | 60% | 1015.5 hPa | 0 mm | - | 507 W/m² | - |
| 1787768976 | 24.44° C | 63% | 1015.6 hPa | 0 mm | - | 702 W/m² | - |
| 1787768672 | 25° C | 61% | 1015.5 hPa | 0 mm | - | 157 W/m² | - |
| 1787768367 | 25.56° C | 58% | 1015.5 hPa | 0 mm | - | 219 W/m² | - |
| 1787768063 | 25.56° C | 61% | 1015.2 hPa | 0 mm | - | 300 W/m² | - |
| 1787767763 | 24.44° C | 63% | 1015.6 hPa | 0 mm | - | 686 W/m² | - |
| 1787767458 | 24.44° C | 62% | 1015.5 hPa | 0 mm | - | 247 W/m² | - |
* Rain latest hour (hover to see other rain measurements)
** Current wind speed in m/s (hover to see current wind gust speed)